createdAt,value
2022-11-17T00:02:23.655Z,24.73
2022-11-17T00:04:50.486Z,26.23
2022-11-17T00:07:17.360Z,22.90
2022-11-17T00:09:44.158Z,26.02
2022-11-17T00:12:32.801Z,27.10
2022-11-17T00:15:00.218Z,25.23
2022-11-17T00:17:27.559Z,27.02
2022-11-17T00:20:13.122Z,28.70
2022-11-17T00:22:39.958Z,24.60
2022-11-17T00:25:06.986Z,25.77
2022-11-17T00:27:33.790Z,26.30
2022-11-17T00:30:00.652Z,22.13
2022-11-17T00:32:46.365Z,26.53
2022-11-17T00:35:13.396Z,25.15
2022-11-17T00:38:04.220Z,25.15
2022-11-17T00:40:31.113Z,24.17
2022-11-17T00:42:57.963Z,25.05
2022-11-17T00:45:24.764Z,27.33
2022-11-17T00:47:51.529Z,28.92
2022-11-17T00:50:18.352Z,24.12
2022-11-17T00:52:45.208Z,27.15
2022-11-17T00:55:12.079Z,27.17
2022-11-17T00:57:38.894Z,24.37
2022-11-17T01:00:06.560Z,25.77
2022-11-17T01:02:33.536Z,24.15
2022-11-17T01:05:00.400Z,22.30
2022-11-17T01:07:27.305Z,24.65
2022-11-17T01:09:54.259Z,22.73
2022-11-17T01:12:21.093Z,21.33
2022-11-17T01:14:47.829Z,20.62
2022-11-17T01:17:14.620Z,22.33
2022-11-17T01:19:41.357Z,20.23
2022-11-17T01:22:08.208Z,23.10
2022-11-17T01:24:35.027Z,23.48
2022-11-17T01:27:02.118Z,23.73
2022-11-17T01:29:29.012Z,26.65
2022-11-17T01:31:55.808Z,21.37
2022-11-17T01:34:22.686Z,25.53
2022-11-17T01:37:08.300Z,21.10
2022-11-17T01:39:35.247Z,23.85
2022-11-17T01:42:18.307Z,26.17
2022-11-17T01:44:57.269Z,25.23
2022-11-17T01:47:42.585Z,23.93
2022-11-17T01:50:30.139Z,22.75
2022-11-17T01:53:00.444Z,21.45
2022-11-17T01:55:37.139Z,24.77
2022-11-17T01:58:34.987Z,23.85
2022-11-17T02:01:02.327Z,24.43
2022-11-17T02:03:34.718Z,25.58
2022-11-17T02:06:08.544Z,25.15
2022-11-17T02:08:38.834Z,22.13
2022-11-17T02:11:36.249Z,24.60
2022-11-17T02:14:05.321Z,28.10
2022-11-17T02:16:32.166Z,25.12
2022-11-17T02:18:59.007Z,25.77
2022-11-17T02:21:47.520Z,25.33
2022-11-17T02:24:33.308Z,27.52
2022-11-17T02:27:25.016Z,23.90
2022-11-17T02:30:06.438Z,26.33
2022-11-17T02:32:50.759Z,25.30
2022-11-17T02:35:35.916Z,28.65
2022-11-17T02:38:12.657Z,25.88
2022-11-17T02:41:05.303Z,27.10
2022-11-17T02:44:00.043Z,24.33
2022-11-17T02:46:30.716Z,23.38
2022-11-17T02:49:02.747Z,26.65
2022-11-17T02:51:31.069Z,30.00
2022-11-17T02:54:00.160Z,22.40
2022-11-17T02:56:27.035Z,26.42
2022-11-17T02:59:00.252Z,24.02
2022-11-17T03:01:43.305Z,25.20
2022-11-17T03:04:32.269Z,25.15
2022-11-17T03:07:16.083Z,25.97
2022-11-17T03:10:21.845Z,24.80
2022-11-17T03:13:11.915Z,27.37
2022-11-17T03:15:55.405Z,25.15
2022-11-17T03:18:35.407Z,23.65
2022-11-17T03:21:20.208Z,25.13
2022-11-17T03:24:08.972Z,23.02
2022-11-17T03:26:41.110Z,26.05
2022-11-17T03:29:12.582Z,27.90
2022-11-17T03:31:41.662Z,27.98
2022-11-17T03:34:14.189Z,25.57
2022-11-17T03:36:47.191Z,24.85
2022-11-17T03:39:25.859Z,26.08
2022-11-17T03:41:59.644Z,26.60
2022-11-17T03:44:31.302Z,27.77
2022-11-17T03:49:57.635Z,27.35
2022-11-17T03:52:25.294Z,25.40
2022-11-17T03:54:53.255Z,24.90
2022-11-17T03:57:26.689Z,26.27
2022-11-17T04:00:04.431Z,25.43
2022-11-17T04:02:31.597Z,25.37
2022-11-17T04:05:07.500Z,32.33
2022-11-17T04:07:45.368Z,25.48
2022-11-17T04:10:20.860Z,29.40
2022-11-17T04:13:07.616Z,31.17
2022-11-17T04:15:53.092Z,26.20
2022-11-17T04:18:20.956Z,29.23
2022-11-17T04:20:53.221Z,28.42
2022-11-17T04:23:20.744Z,28.35
2022-11-17T04:26:08.545Z,28.40
2022-11-17T04:28:37.497Z,29.27
2022-11-17T04:31:08.859Z,30.05
2022-11-17T04:33:39.248Z,30.17
2022-11-17T04:36:07.362Z,26.50
2022-11-17T04:38:35.085Z,30.03
2022-11-17T04:41:23.109Z,27.85
2022-11-17T04:43:50.441Z,27.25
2022-11-17T04:46:18.612Z,28.02
2022-11-17T04:48:46.474Z,27.13
2022-11-17T04:51:14.215Z,27.53
2022-11-17T04:53:41.513Z,27.25
2022-11-17T04:56:08.627Z,29.37
2022-11-17T04:58:35.758Z,26.02
2022-11-17T05:01:15.926Z,26.70
2022-11-17T05:03:46.167Z,25.33
2022-11-17T05:06:15.853Z,24.50
2022-11-17T05:08:44.054Z,21.45
2022-11-17T05:11:32.020Z,25.80
2022-11-17T05:13:59.375Z,25.48
2022-11-17T05:16:45.024Z,24.33
2022-11-17T05:19:20.234Z,28.30
2022-11-17T05:21:47.313Z,30.15
2022-11-17T05:24:14.826Z,24.63
2022-11-17T05:26:43.254Z,28.80
2022-11-17T05:29:12.807Z,25.90
2022-11-17T05:31:40.242Z,26.80
2022-11-17T05:34:08.616Z,27.75
2022-11-17T05:36:36.176Z,25.77
2022-11-17T05:39:03.836Z,24.58
2022-11-17T05:41:31.147Z,28.53
2022-11-17T05:43:59.128Z,26.60
2022-11-17T05:46:26.839Z,29.02
2022-11-17T05:48:54.191Z,27.02
2022-11-17T05:51:23.709Z,27.55
2022-11-17T05:53:51.114Z,27.87
2022-11-17T05:56:35.874Z,24.75
2022-11-17T05:59:15.914Z,31.17
2022-11-17T06:01:49.204Z,28.90
2022-11-17T06:04:19.556Z,26.75
2022-11-17T06:06:47.705Z,31.57
2022-11-17T06:09:15.131Z,28.35
2022-11-17T06:11:41.980Z,51.33
2022-11-17T06:14:08.952Z,41.55
2022-11-17T06:16:40.804Z,27.30
2022-11-17T06:19:18.008Z,36.30
2022-11-17T06:22:10.473Z,30.92
2022-11-17T06:24:33.350Z,27.55
2022-11-17T06:27:00.850Z,31.12
2022-11-17T06:29:29.567Z,31.15
2022-11-17T06:31:58.199Z,30.50
2022-11-17T06:34:26.757Z,32.00
2022-11-17T06:36:53.727Z,29.10
2022-11-17T06:39:20.650Z,29.37
2022-11-17T06:41:47.530Z,29.63
2022-11-17T06:44:14.287Z,30.40
2022-11-17T06:46:44.798Z,34.33
2022-11-17T06:49:14.550Z,30.30
2022-11-17T06:51:45.845Z,27.48
2022-11-17T06:54:14.851Z,27.33
2022-11-17T06:56:42.626Z,28.03
2022-11-17T06:59:09.563Z,26.37
2022-11-17T07:01:37.764Z,31.42
2022-11-17T07:04:04.824Z,31.20
2022-11-17T07:06:32.244Z,30.20
2022-11-17T07:08:59.147Z,29.17
2022-11-17T07:11:26.028Z,28.80
2022-11-17T07:13:52.961Z,29.80
2022-11-17T07:16:23.969Z,31.50
2022-11-17T07:18:53.051Z,28.33
2022-11-17T07:21:22.424Z,27.17
2022-11-17T07:23:49.309Z,29.02
2022-11-17T07:26:16.217Z,28.92
2022-11-17T07:28:43.836Z,24.33
2022-11-17T07:31:10.739Z,23.40
2022-11-17T07:33:37.621Z,22.93
2022-11-17T07:36:10.032Z,20.80
2022-11-17T07:38:39.170Z,17.50
2022-11-17T07:41:08.870Z,17.48
2022-11-17T07:43:36.714Z,16.90
2022-11-17T07:46:08.501Z,17.63
2022-11-17T07:48:35.657Z,19.12
2022-11-17T07:51:04.361Z,21.75
2022-11-17T07:53:33.368Z,21.08
2022-11-17T07:56:08.901Z,25.45
2022-11-17T07:58:36.818Z,19.00
2022-11-17T08:01:15.615Z,14.65
2022-11-17T08:03:43.409Z,15.85
2022-11-17T08:06:10.429Z,12.05
2022-11-17T08:08:38.622Z,14.80
2022-11-17T08:11:10.900Z,13.33
2022-11-17T08:13:39.617Z,15.25
2022-11-17T08:16:07.530Z,12.70
2022-11-17T08:18:35.173Z,13.25
2022-11-17T08:21:04.498Z,13.93
2022-11-17T08:23:31.379Z,14.83
2022-11-17T08:25:58.624Z,14.52
2022-11-17T08:28:26.270Z,13.10
2022-11-17T08:30:53.222Z,12.85
2022-11-17T08:33:20.067Z,12.90
2022-11-17T08:35:46.882Z,12.60
2022-11-17T08:38:15.559Z,12.52
2022-11-17T08:40:42.379Z,14.13
2022-11-17T08:43:09.192Z,12.30
2022-11-17T08:45:35.952Z,13.82
2022-11-17T08:48:04.189Z,14.27
2022-11-17T08:50:31.109Z,14.50
2022-11-17T08:52:57.866Z,16.95
2022-11-17T08:55:26.261Z,14.13
2022-11-17T08:57:53.304Z,13.25
2022-11-17T09:00:21.856Z,12.90
2022-11-17T09:02:48.794Z,12.65
2022-11-17T09:05:15.572Z,17.42
2022-11-17T09:07:42.407Z,13.20
2022-11-17T09:10:11.149Z,12.88
2022-11-17T09:12:38.216Z,11.60
2022-11-17T09:15:05.688Z,13.65
2022-11-17T09:17:32.789Z,12.93
2022-11-17T09:19:59.748Z,12.77
2022-11-17T09:22:26.570Z,14.32
2022-11-17T09:24:53.478Z,12.13
2022-11-17T09:27:20.282Z,11.88
2022-11-17T09:29:47.993Z,13.00
2022-11-17T09:32:16.872Z,15.02
2022-11-17T09:34:43.970Z,12.05
2022-11-17T09:37:10.754Z,12.17
2022-11-17T09:39:37.580Z,11.30
2022-11-17T09:42:04.642Z,15.32
2022-11-17T09:44:31.326Z,18.00
2022-11-17T09:47:15.277Z,11.52
2022-11-17T09:49:58.116Z,12.17
2022-11-17T09:52:28.505Z,11.60
2022-11-17T09:54:58.350Z,11.30
2022-11-17T09:57:31.159Z,11.52
2022-11-17T10:00:27.661Z,10.25
2022-11-17T10:02:55.556Z,12.40
2022-11-17T10:05:29.737Z,10.77
2022-11-17T10:08:03.528Z,11.35
2022-11-17T10:10:45.019Z,11.00
2022-11-17T10:13:23.739Z,10.30
2022-11-17T10:15:55.773Z,10.83
2022-11-17T10:18:22.773Z,9.15
2022-11-17T10:20:51.324Z,10.25
2022-11-17T10:23:20.284Z,8.70
2022-11-17T10:25:58.151Z,7.90
2022-11-17T10:28:30.899Z,8.23
2022-11-17T10:31:01.853Z,7.65
2022-11-17T10:33:49.995Z,7.40
2022-11-17T10:36:29.935Z,7.45
2022-11-17T10:38:59.752Z,7.47
2022-11-17T10:41:39.222Z,11.17
2022-11-17T10:44:16.547Z,7.40
2022-11-17T10:47:04.352Z,7.43
2022-11-17T10:49:34.792Z,7.28
2022-11-17T10:52:05.640Z,6.60
2022-11-17T10:54:32.495Z,5.87
2022-11-17T10:57:00.647Z,6.32
2022-11-17T10:59:33.159Z,5.68
2022-11-17T11:02:25.741Z,6.68
2022-11-17T11:05:17.102Z,6.30
2022-11-17T11:07:44.609Z,6.87
2022-11-17T11:10:14.706Z,7.15
2022-11-17T11:13:02.850Z,6.30
2022-11-17T11:15:36.137Z,6.78
2022-11-17T11:18:12.413Z,5.55
2022-11-17T11:21:34.559Z,7.50
2022-11-17T11:24:10.471Z,7.25
2022-11-17T11:27:04.961Z,6.30
2022-11-17T11:29:51.034Z,7.10
2022-11-17T11:32:25.350Z,8.23
2022-11-17T11:35:04.247Z,6.27
2022-11-17T11:37:41.527Z,7.25
2022-11-17T11:40:22.253Z,6.37
2022-11-17T11:43:06.414Z,6.72
2022-11-17T11:45:53.597Z,6.93
2022-11-17T11:48:27.677Z,7.13
2022-11-17T11:51:02.107Z,6.82
2022-11-17T11:53:37.688Z,8.98
2022-11-17T11:56:27.545Z,6.62
2022-11-17T11:59:02.206Z,7.47
2022-11-17T12:01:41.472Z,7.53
2022-11-17T12:04:25.538Z,7.97
2022-11-17T12:07:21.288Z,8.50
2022-11-17T12:10:35.119Z,6.75
2022-11-17T12:13:04.447Z,8.32
2022-11-17T12:15:35.856Z,8.20
2022-11-17T12:18:19.445Z,6.25
2022-11-17T12:21:13.944Z,6.85
2022-11-17T12:24:23.584Z,6.12
2022-11-17T12:26:50.448Z,8.60
2022-11-17T12:29:20.181Z,8.27
2022-11-17T12:31:48.997Z,9.32
2022-11-17T12:34:20.977Z,14.77
2022-11-17T12:37:06.346Z,11.05
2022-11-17T12:39:51.604Z,9.60
2022-11-17T12:42:18.495Z,7.27
2022-11-17T12:44:50.039Z,5.80
2022-11-17T12:47:18.296Z,6.10
2022-11-17T12:49:53.334Z,6.65
2022-11-17T12:52:45.338Z,5.75
2022-11-17T12:55:39.898Z,4.33
2022-11-17T12:58:15.447Z,4.75
2022-11-17T13:01:09.020Z,5.07
2022-11-17T13:03:45.058Z,5.50
2022-11-17T13:09:12.313Z,4.30
2022-11-17T13:11:39.141Z,5.20
2022-11-17T13:14:17.064Z,5.07
2022-11-17T13:16:50.059Z,4.78
2022-11-17T13:19:34.381Z,6.40
2022-11-17T13:22:06.609Z,5.97
2022-11-17T13:24:36.180Z,4.53
2022-11-17T13:27:09.508Z,4.30
2022-11-17T13:29:36.412Z,6.05
2022-11-17T13:32:16.534Z,7.30
2022-11-17T13:35:01.798Z,8.20
2022-11-17T13:37:29.979Z,6.87
2022-11-17T13:40:03.055Z,6.55
2022-11-17T13:42:33.219Z,5.32
2022-11-17T13:45:03.016Z,8.43
2022-11-17T13:47:39.494Z,6.07
2022-11-17T13:50:24.157Z,5.47
2022-11-17T13:52:54.700Z,5.55
2022-11-17T13:55:24.142Z,5.55
2022-11-17T13:58:24.482Z,6.57
2022-11-17T14:00:56.285Z,6.40
2022-11-17T14:03:37.968Z,6.07
2022-11-17T14:06:07.625Z,5.68
2022-11-17T14:08:36.273Z,5.47
2022-11-17T14:11:12.132Z,8.35
2022-11-17T14:14:01.252Z,6.97
2022-11-17T14:16:38.806Z,13.30
2022-11-17T14:19:26.146Z,10.30
2022-11-17T14:22:31.023Z,8.75
2022-11-17T14:24:58.450Z,10.82
2022-11-17T14:27:31.838Z,13.20
2022-11-17T14:29:58.811Z,10.15
2022-11-17T14:32:25.658Z,10.50
2022-11-17T14:34:52.444Z,11.30
2022-11-17T14:37:19.299Z,10.77
2022-11-17T14:39:46.267Z,13.77
2022-11-17T14:42:13.052Z,10.73
2022-11-17T14:44:39.784Z,11.50
2022-11-17T14:47:06.609Z,13.57
2022-11-17T14:49:33.440Z,13.52
2022-11-17T14:52:00.475Z,10.90
2022-11-17T14:54:27.274Z,10.45
2022-11-17T14:56:54.145Z,15.63
2022-11-17T14:59:20.888Z,13.18
2022-11-17T15:01:47.774Z,15.90
2022-11-17T15:04:48.398Z,18.13
2022-11-17T15:07:03.262Z,14.60
2022-11-17T15:09:31.525Z,23.90
2022-11-17T15:11:58.390Z,25.05
2022-11-17T15:14:25.307Z,12.55
2022-11-17T15:16:52.067Z,17.37
2022-11-17T15:19:19.017Z,16.48
2022-11-17T15:21:45.867Z,19.15
2022-11-17T15:24:13.167Z,18.35
2022-11-17T15:26:40.499Z,15.32
2022-11-17T15:29:07.315Z,20.07
2022-11-17T15:31:34.505Z,20.35
2022-11-17T15:34:01.225Z,26.35
2022-11-17T15:36:28.124Z,29.90
2022-11-17T15:38:56.415Z,41.22
2022-11-17T15:41:23.639Z,28.53
2022-11-17T15:43:51.504Z,27.75
2022-11-17T15:46:18.946Z,38.42
2022-11-17T15:48:47.543Z,32.15
2022-11-17T15:51:16.893Z,38.97
2022-11-17T15:53:45.082Z,31.77
2022-11-17T15:56:19.459Z,32.00
2022-11-17T15:58:47.392Z,34.13
2022-11-17T16:01:28.368Z,40.42
2022-11-17T16:04:04.977Z,37.17
2022-11-17T16:06:33.551Z,30.63
2022-11-17T16:09:01.231Z,31.77
2022-11-17T16:11:28.477Z,35.53
2022-11-17T16:13:59.831Z,30.15
2022-11-17T16:16:31.717Z,37.67
2022-11-17T16:18:59.151Z,42.13
2022-11-17T16:21:26.054Z,24.63
2022-11-17T16:23:55.983Z,19.58
2022-11-17T16:26:25.222Z,24.45
2022-11-17T16:29:06.775Z,25.10
2022-11-17T16:31:35.650Z,21.07
2022-11-17T16:34:05.311Z,20.50
2022-11-17T16:36:36.760Z,22.33
2022-11-17T16:39:06.742Z,23.48
2022-11-17T16:41:41.493Z,20.12
2022-11-17T16:44:11.995Z,24.00
2022-11-17T16:46:42.187Z,24.77
2022-11-17T16:49:11.977Z,33.63
2022-11-17T16:51:39.448Z,34.78
2022-11-17T16:54:10.791Z,36.25
2022-11-17T16:56:37.653Z,33.60
2022-11-17T16:59:05.028Z,35.83
2022-11-17T17:01:34.979Z,31.98
2022-11-17T17:04:04.758Z,34.60
2022-11-17T17:06:32.026Z,29.67
2022-11-17T17:09:01.539Z,33.90
2022-11-17T17:11:31.799Z,33.38
2022-11-17T17:14:03.452Z,35.28
2022-11-17T17:16:32.761Z,34.78
2022-11-17T17:19:01.967Z,34.13
2022-11-17T17:21:30.186Z,35.17
2022-11-17T17:23:58.063Z,35.45
2022-11-17T17:26:27.565Z,31.62
2022-11-17T17:28:57.164Z,46.08
2022-11-17T17:31:26.358Z,64.40
2022-11-17T17:33:55.276Z,67.27
2022-11-17T17:36:24.785Z,68.03
2022-11-17T17:38:56.251Z,70.75
2022-11-17T17:41:29.576Z,71.47
2022-11-17T17:44:02.599Z,78.07
2022-11-17T17:46:31.161Z,67.33
2022-11-17T17:48:58.571Z,58.03
2022-11-17T17:51:27.933Z,66.55
2022-11-17T17:53:58.189Z,71.53
2022-11-17T17:56:25.485Z,68.07
2022-11-17T17:58:55.243Z,63.47
2022-11-17T18:01:24.928Z,59.08
2022-11-17T18:03:54.343Z,47.75
2022-11-17T18:06:22.614Z,44.55
2022-11-17T18:08:50.045Z,45.30
2022-11-17T18:11:20.366Z,49.43
2022-11-17T18:13:49.875Z,51.50
2022-11-17T18:16:18.360Z,37.58
2022-11-17T18:18:47.606Z,38.10
2022-11-17T18:21:17.434Z,41.53
2022-11-17T18:23:44.920Z,39.50
2022-11-17T18:26:18.208Z,37.17
2022-11-17T18:28:51.522Z,32.50
2022-11-17T18:31:19.434Z,32.85
2022-11-17T18:33:50.681Z,27.27
2022-11-17T18:36:17.577Z,28.50
2022-11-17T18:38:44.478Z,26.08
2022-11-17T18:41:14.440Z,26.48
2022-11-17T18:43:43.339Z,30.83
2022-11-17T18:46:13.257Z,31.85
2022-11-17T18:48:42.814Z,34.33
2022-11-17T18:51:20.615Z,37.28
2022-11-17T18:53:52.714Z,36.67
2022-11-17T18:56:25.483Z,31.58
2022-11-17T18:58:53.427Z,36.78
2022-11-17T19:01:24.039Z,33.33
2022-11-17T19:03:53.951Z,32.28
2022-11-17T19:06:23.306Z,27.60
2022-11-17T19:08:51.989Z,32.95
2022-11-17T19:11:21.387Z,29.95
2022-11-17T19:13:49.238Z,27.80
2022-11-17T19:16:18.291Z,32.60
2022-11-17T19:18:47.745Z,26.95
2022-11-17T19:21:17.745Z,27.52
2022-11-17T19:23:51.028Z,27.80
2022-11-17T19:26:24.928Z,28.83
2022-11-17T19:28:57.612Z,31.02
2022-11-17T19:31:26.163Z,28.17
2022-11-17T19:33:54.223Z,31.10
2022-11-17T19:36:29.870Z,29.77
2022-11-17T19:39:00.046Z,27.27
2022-11-17T19:41:32.415Z,29.80
2022-11-17T19:44:01.995Z,30.55
2022-11-17T19:46:30.861Z,31.35
2022-11-17T19:49:00.311Z,32.42
2022-11-17T19:51:37.359Z,33.67
2022-11-17T19:54:07.599Z,35.75
2022-11-17T19:56:35.783Z,32.05
2022-11-17T19:59:04.179Z,32.50
2022-11-17T20:01:32.905Z,37.17
2022-11-17T20:04:02.087Z,40.23
2022-11-17T20:06:36.548Z,35.47
2022-11-17T20:09:12.335Z,39.55
2022-11-17T20:11:40.538Z,38.90
2022-11-17T20:14:08.040Z,38.50
2022-11-17T20:16:37.211Z,44.93
2022-11-17T20:19:05.248Z,44.45
2022-11-17T20:21:32.464Z,45.95
2022-11-17T20:24:00.808Z,40.78
2022-11-17T20:26:30.813Z,41.65
2022-11-17T20:29:07.757Z,45.43
2022-11-17T20:31:36.483Z,45.00
2022-11-17T20:34:05.362Z,46.63
2022-11-17T20:36:35.155Z,43.65
2022-11-17T20:39:04.785Z,39.80
2022-11-17T20:41:32.157Z,44.60
2022-11-17T20:44:01.093Z,47.42
2022-11-17T20:46:28.078Z,47.33
2022-11-17T20:48:55.241Z,41.58
2022-11-17T20:51:25.093Z,40.00
2022-11-17T20:53:52.417Z,40.30
2022-11-17T20:56:19.891Z,36.05
2022-11-17T20:58:48.263Z,32.95
2022-11-17T21:01:18.514Z,34.90
2022-11-17T21:03:46.007Z,40.67
2022-11-17T21:06:14.145Z,41.43
2022-11-17T21:08:42.911Z,36.22
2022-11-17T21:11:32.027Z,34.88
2022-11-17T21:13:59.615Z,38.38
2022-11-17T21:16:26.654Z,42.92
2022-11-17T21:18:53.538Z,34.10
2022-11-17T21:21:20.324Z,38.85
2022-11-17T21:23:47.143Z,44.20
2022-11-17T21:26:17.177Z,40.47
2022-11-17T21:28:44.048Z,41.53
2022-11-17T21:31:14.575Z,37.83
2022-11-17T21:33:42.544Z,42.78
2022-11-17T21:36:11.607Z,39.78
2022-11-17T21:38:39.255Z,46.08
2022-11-17T21:41:13.149Z,45.20
2022-11-17T21:43:41.359Z,66.97
2022-11-17T21:46:11.817Z,50.85
2022-11-17T21:48:39.261Z,43.92
2022-11-17T21:51:12.703Z,37.38
2022-11-17T21:53:39.522Z,38.53
2022-11-17T21:56:07.697Z,38.80
2022-11-17T21:58:34.826Z,43.55
2022-11-17T22:01:10.311Z,41.30
2022-11-17T22:03:37.619Z,37.50
2022-11-17T22:06:09.435Z,37.90
2022-11-17T22:08:38.270Z,36.53
2022-11-17T22:11:07.671Z,38.55
2022-11-17T22:13:35.181Z,40.95
2022-11-17T22:16:08.539Z,44.40
2022-11-17T22:18:35.696Z,42.88
2022-11-17T22:21:02.634Z,44.87
2022-11-17T22:23:29.490Z,40.92
2022-11-17T22:26:00.947Z,43.30
2022-11-17T22:28:27.993Z,41.15
2022-11-17T22:30:55.798Z,38.90
2022-11-17T22:33:23.103Z,37.87
2022-11-17T22:35:50.543Z,40.67
2022-11-17T22:38:17.799Z,42.20
2022-11-17T22:40:44.652Z,39.25
2022-11-17T22:43:14.872Z,38.28
2022-11-17T22:45:41.950Z,36.23
2022-11-17T22:48:09.018Z,40.33
2022-11-17T22:50:36.661Z,34.92
2022-11-17T22:53:03.646Z,34.53
2022-11-17T22:55:32.838Z,38.70
2022-11-17T22:57:59.965Z,37.13
2022-11-17T23:00:26.905Z,35.63
2022-11-17T23:02:53.732Z,36.85
2022-11-17T23:05:20.611Z,34.20
2022-11-17T23:07:47.374Z,37.78
2022-11-17T23:10:14.485Z,38.03
2022-11-17T23:12:41.482Z,34.88
2022-11-17T23:15:08.848Z,32.80
2022-11-17T23:17:35.727Z,34.28
2022-11-17T23:20:02.771Z,35.78
2022-11-17T23:22:29.723Z,35.47
2022-11-17T23:24:56.450Z,33.85
2022-11-17T23:27:23.349Z,33.70
2022-11-17T23:29:50.237Z,32.63
2022-11-17T23:32:17.199Z,31.85
2022-11-17T23:34:44.058Z,33.00
2022-11-17T23:37:11.326Z,32.78
2022-11-17T23:39:38.454Z,33.38
2022-11-17T23:42:05.534Z,34.33
2022-11-17T23:44:32.316Z,31.55
2022-11-17T23:46:59.191Z,35.77
2022-11-17T23:49:26.361Z,30.45
2022-11-17T23:51:53.125Z,33.75
2022-11-17T23:54:19.979Z,34.78
2022-11-17T23:56:48.943Z,36.03
2022-11-17T23:59:16.020Z,33.13
